createdAt,value
2018-06-10T09:38:58.916Z,10.50
2018-06-10T09:41:27.095Z,10.03
2018-06-10T09:43:55.272Z,10.10
2018-06-10T09:46:23.457Z,11.17
2018-06-10T09:48:51.651Z,10.07
2018-06-10T09:51:21.060Z,9.83
2018-06-10T09:53:49.276Z,11.03
2018-06-10T09:56:17.484Z,10.77
2018-06-10T09:58:45.685Z,8.83
2018-06-10T10:01:13.869Z,9.60
2018-06-10T10:03:42.065Z,9.93
2018-06-10T10:06:10.267Z,8.47
2018-06-10T10:08:38.453Z,8.80
2018-06-10T10:11:06.648Z,8.17
2018-06-10T10:13:34.824Z,9.23
2018-06-10T10:16:03.009Z,8.53
2018-06-10T10:18:31.180Z,10.90
2018-06-10T10:20:59.365Z,9.60
2018-06-10T10:23:27.552Z,9.13
2018-06-10T10:25:55.771Z,9.93
2018-06-10T10:28:23.977Z,10.13
2018-06-10T10:30:52.156Z,9.20
2018-06-10T10:33:20.360Z,9.83
2018-06-10T10:35:48.582Z,9.00
2018-06-10T10:38:16.798Z,9.87
2018-06-10T10:40:44.981Z,8.30
2018-06-10T10:43:13.300Z,8.80
2018-06-10T10:45:41.564Z,8.63
2018-06-10T10:48:09.752Z,9.30
2018-06-10T10:50:37.952Z,8.03
2018-06-10T11:36:47.985Z,7.97
2018-06-10T11:39:16.173Z,9.20
2018-06-10T11:41:44.675Z,9.40
2018-06-10T11:44:12.888Z,10.17
2018-06-10T11:46:41.084Z,8.33
2018-06-10T11:49:09.273Z,9.13
2018-06-10T11:51:37.453Z,8.30
2018-06-10T11:54:06.048Z,9.80
2018-06-10T11:56:34.258Z,8.23
2018-06-10T11:59:02.444Z,9.30
2018-06-10T12:01:30.636Z,7.43
2018-06-10T12:03:58.825Z,7.40
2018-06-10T12:06:27.085Z,8.70
2018-06-10T12:08:55.279Z,8.17
2018-06-10T12:11:23.465Z,6.40
2018-06-10T12:13:51.725Z,6.70
2018-06-10T12:16:19.892Z,7.43
2018-06-10T12:18:48.080Z,8.57
2018-06-10T12:21:16.268Z,6.57
2018-06-10T12:23:44.514Z,6.40
2018-06-10T12:26:12.687Z,9.67
2018-06-10T12:28:40.869Z,6.40
2018-06-10T12:31:09.050Z,6.13
2018-06-10T12:33:37.234Z,9.80
2018-06-10T12:36:05.514Z,11.40
2018-06-10T12:38:33.700Z,9.67
2018-06-10T12:41:01.896Z,11.10
2018-06-10T12:43:30.073Z,6.70
2018-06-10T12:45:58.257Z,10.53
2018-06-10T12:48:26.200Z,6.47
2018-06-10T12:50:54.446Z,8.67
2018-06-10T12:53:22.633Z,9.03
2018-06-10T12:55:50.893Z,8.20
2018-06-10T12:58:19.112Z,7.03
2018-06-10T13:00:47.287Z,7.10
2018-06-10T13:03:15.468Z,7.10
2018-06-10T13:05:43.670Z,8.77
2018-06-10T13:08:11.857Z,7.37
2018-06-10T13:10:40.057Z,7.70
2018-06-10T13:13:08.257Z,8.20
2018-06-10T13:15:36.456Z,11.10
2018-06-10T13:18:04.672Z,10.13
2018-06-10T13:20:32.874Z,8.77
2018-06-10T13:23:01.073Z,12.40
2018-06-10T13:25:29.273Z,8.83
2018-06-10T13:27:57.255Z,8.90
2018-06-10T13:30:25.445Z,8.50
2018-06-10T13:32:53.645Z,11.17
2018-06-10T13:35:21.844Z,10.43
2018-06-10T13:37:50.040Z,10.63
2018-06-10T13:40:18.245Z,8.20
2018-06-10T13:42:46.455Z,10.20
2018-06-10T13:45:14.641Z,12.80
2018-06-10T13:47:42.829Z,9.30
2018-06-10T15:23:05.408Z,4.93
2018-06-10T15:25:33.584Z,5.70
2018-06-10T15:28:01.776Z,5.57
2018-06-10T15:30:29.963Z,4.97
2018-06-10T15:32:58.127Z,4.17
2018-06-10T15:35:26.297Z,6.77
2018-06-10T15:37:54.472Z,6.97
2018-06-10T15:40:22.668Z,6.10
2018-06-10T15:42:50.841Z,8.50
2018-06-10T15:45:19.020Z,4.87
2018-06-10T15:47:47.184Z,4.83
2018-06-10T15:50:15.147Z,7.50
2018-06-10T15:52:43.309Z,4.87
2018-06-10T15:55:11.473Z,5.83
2018-06-10T15:57:39.641Z,4.67
2018-06-10T16:00:07.812Z,4.93
2018-06-10T16:02:35.997Z,5.07
2018-06-10T16:05:04.192Z,5.87
2018-06-10T16:07:32.360Z,4.37
2018-06-10T16:10:00.532Z,4.63
2018-06-10T16:12:28.713Z,4.90
2018-06-10T16:14:56.881Z,6.50
2018-06-10T16:17:25.052Z,4.37
2018-06-10T16:19:53.224Z,6.30
2018-06-10T16:22:21.397Z,4.63
2018-06-10T16:24:49.580Z,4.40
2018-06-10T16:27:17.755Z,4.30
2018-06-10T16:29:45.928Z,5.00
2018-06-10T16:32:14.105Z,5.87
2018-06-10T16:34:42.289Z,5.97
2018-06-10T16:37:10.461Z,4.97
2018-06-10T16:39:38.629Z,5.47
2018-06-10T16:42:06.847Z,4.77
2018-06-10T16:44:35.004Z,5.13
2018-06-10T16:47:02.984Z,7.17
2018-06-10T16:49:31.175Z,5.60
2018-06-10T16:51:59.341Z,6.10
2018-06-10T16:54:27.531Z,6.43
2018-06-10T16:56:55.721Z,6.70
2018-06-10T16:59:23.888Z,4.50
2018-06-10T17:01:52.078Z,4.57
2018-06-10T17:04:20.256Z,5.50
2018-06-10T17:06:48.432Z,7.70
2018-06-10T17:09:16.602Z,4.93
2018-06-10T17:11:44.776Z,6.57
2018-06-10T17:14:12.948Z,6.70
2018-06-10T17:16:41.196Z,6.97
2018-06-10T17:19:09.376Z,8.27
2018-06-10T17:21:37.637Z,7.80
2018-06-10T17:24:05.807Z,7.73
2018-06-10T17:26:33.976Z,8.87
2018-06-10T17:29:01.917Z,8.43
2018-06-10T17:31:30.154Z,9.00
2018-06-10T17:33:58.316Z,12.10
2018-06-10T17:36:26.488Z,8.90
2018-06-10T17:38:54.689Z,7.57
2018-06-10T17:41:22.896Z,6.33
2018-06-10T17:43:51.108Z,8.60
2018-06-10T17:46:19.350Z,8.00
2018-06-10T17:48:47.547Z,7.80
2018-06-10T17:51:15.508Z,6.97
2018-06-10T17:53:43.758Z,6.83
2018-06-10T17:56:11.933Z,6.33
2018-06-10T17:58:40.115Z,6.27
2018-06-10T18:01:08.280Z,8.07
2018-06-10T18:03:36.475Z,6.37
2018-06-10T18:06:04.643Z,7.97
2018-06-10T18:08:32.871Z,8.77
2018-06-10T18:11:01.035Z,7.77
2018-06-10T18:13:29.225Z,7.07
2018-06-10T18:15:57.401Z,7.70
2018-06-10T18:18:25.584Z,6.87
2018-06-10T18:20:53.816Z,7.90
2018-06-10T18:23:22.002Z,5.60
2018-06-10T18:25:49.964Z,9.47
2018-06-10T18:28:17.905Z,6.30
2018-06-10T18:30:46.093Z,4.93
2018-06-10T18:33:14.299Z,7.97
2018-06-10T18:35:42.495Z,10.37
2018-06-10T18:38:10.705Z,21.90
2018-06-10T18:40:38.924Z,18.70
2018-06-10T18:43:07.123Z,18.47
2018-06-10T18:45:35.330Z,14.10
2018-06-10T18:48:03.513Z,13.07
2018-06-10T18:50:31.700Z,22.07
2018-06-10T18:52:59.908Z,25.03
2018-06-10T18:55:28.099Z,23.20
2018-06-10T18:57:56.284Z,9.27
2018-06-10T19:00:24.477Z,8.47
2018-06-10T19:02:52.801Z,19.97
2018-06-10T19:05:20.948Z,17.97
2018-06-10T19:07:49.129Z,15.27
2018-06-10T19:10:17.373Z,11.23
2018-06-10T19:12:45.512Z,12.33
2018-06-10T19:15:13.698Z,10.90
2018-06-10T19:17:41.880Z,11.70
2018-06-10T19:20:10.061Z,14.47
2018-06-10T19:22:38.243Z,12.53
2018-06-10T19:25:06.425Z,13.53
2018-06-10T19:27:34.600Z,10.00
2018-06-10T19:30:02.776Z,10.70
2018-06-10T19:32:30.953Z,16.43
2018-06-10T19:34:59.201Z,13.50
2018-06-10T19:37:27.396Z,12.07
2018-06-10T19:39:55.563Z,12.90
2018-06-10T19:42:23.736Z,13.70
2018-06-10T19:44:51.908Z,15.47
2018-06-10T19:47:20.083Z,17.33
2018-06-10T19:49:48.256Z,15.30
2018-06-10T19:52:16.437Z,19.03
2018-06-10T19:54:44.595Z,17.33
2018-06-10T19:57:12.813Z,11.03
2018-06-10T19:59:41.004Z,15.20
2018-06-10T20:02:09.185Z,12.10
2018-06-10T20:04:37.361Z,12.83
2018-06-10T20:07:05.564Z,12.30
2018-06-10T20:09:33.754Z,11.50
2018-06-10T20:12:01.933Z,11.33
2018-06-10T20:14:30.096Z,11.90
2018-06-10T20:16:58.260Z,9.53
2018-06-10T20:19:26.440Z,8.83
2018-06-10T20:21:54.612Z,8.50
2018-06-10T20:24:22.784Z,10.50
2018-06-10T20:26:50.965Z,10.53
2018-06-10T20:29:19.144Z,18.23
2018-06-10T20:31:47.320Z,18.90
2018-06-10T20:34:15.496Z,17.20
2018-06-10T20:36:43.681Z,21.73
2018-06-10T20:39:11.900Z,19.27
2018-06-10T20:41:40.084Z,19.77
2018-06-10T20:44:08.261Z,14.20
2018-06-10T20:46:36.446Z,12.57
2018-06-10T20:49:04.669Z,10.03
2018-06-10T20:51:32.900Z,12.90
2018-06-10T20:54:01.078Z,10.87
2018-06-10T20:56:29.256Z,12.70
2018-06-10T20:58:57.432Z,12.75
2018-06-10T21:01:25.608Z,10.23
2018-06-10T21:03:53.824Z,10.37
2018-06-10T21:06:22.008Z,10.07
2018-06-10T21:08:50.187Z,10.47
2018-06-10T21:11:18.389Z,9.67
2018-06-10T21:13:46.560Z,11.13
2018-06-10T21:16:14.752Z,10.00
2018-06-10T21:18:42.936Z,9.77
2018-06-10T21:21:11.173Z,8.30
2018-06-10T21:23:39.380Z,11.47
2018-06-10T21:26:07.552Z,8.17
2018-06-10T21:28:35.483Z,8.77
2018-06-10T21:31:03.652Z,10.67
2018-06-10T21:33:31.965Z,9.23
2018-06-10T21:36:00.124Z,8.83
2018-06-10T21:38:28.308Z,8.63
2018-06-10T21:40:56.488Z,12.47
2018-06-10T21:43:24.676Z,9.70
2018-06-10T21:45:52.854Z,12.00
2018-06-10T21:48:21.016Z,12.03
